createdAt,value
2023-03-03T00:00:51.555Z,-2.42
2023-03-03T00:05:54.403Z,-2.40
2023-03-03T00:10:56.633Z,-2.56
2023-03-03T00:16:18.622Z,-2.31
2023-03-03T00:21:29.893Z,-3.00
2023-03-03T00:26:36.845Z,-2.31
2023-03-03T00:31:39.035Z,-3.01
2023-03-03T00:36:41.532Z,-2.41
2023-03-03T00:41:43.848Z,-2.98
2023-03-03T00:46:46.050Z,-3.91
2023-03-03T00:51:48.192Z,-2.75
2023-03-03T00:56:50.374Z,-3.47
2023-03-03T01:01:54.526Z,-3.78
2023-03-03T01:06:56.777Z,-5.78
2023-03-03T01:11:59.035Z,-2.98
2023-03-03T01:17:01.235Z,-2.40
2023-03-03T01:22:03.503Z,-2.40
2023-03-03T01:27:05.743Z,-2.04
2023-03-03T01:32:07.985Z,-3.59
2023-03-03T01:37:10.141Z,-1.97
2023-03-03T01:42:12.371Z,-2.15
2023-03-03T01:47:30.793Z,-2.09
2023-03-03T01:52:34.181Z,-1.92
2023-03-03T01:57:41.312Z,-2.27
2023-03-03T02:02:45.063Z,-2.97
2023-03-03T02:07:47.407Z,-2.46
2023-03-03T02:12:52.687Z,-2.26
2023-03-03T02:17:59.226Z,-1.86
2023-03-03T02:23:09.548Z,-2.68
2023-03-03T02:28:11.849Z,-2.57
2023-03-03T02:33:14.119Z,-4.86
2023-03-03T02:38:28.552Z,-2.52
2023-03-03T02:43:37.014Z,-3.09
2023-03-03T02:48:39.204Z,-2.47
2023-03-03T02:53:41.816Z,-2.24
2023-03-03T02:58:44.257Z,-5.40
2023-03-03T03:03:46.824Z,-2.43
2023-03-03T03:08:52.484Z,-1.69
2023-03-03T03:13:54.799Z,-3.15
2023-03-03T03:18:57.036Z,-2.22
2023-03-03T03:23:59.611Z,-2.21
2023-03-03T03:29:02.491Z,-2.30
2023-03-03T03:34:04.999Z,-1.83
2023-03-03T03:39:07.393Z,-2.66
2023-03-03T03:44:12.712Z,-2.75
2023-03-03T03:49:15.232Z,-1.97
2023-03-03T03:54:17.973Z,-2.39
2023-03-03T03:59:21.102Z,-2.02
2023-03-03T04:04:23.903Z,-2.89
2023-03-03T04:09:26.394Z,-1.79
2023-03-03T04:14:28.807Z,-2.21
2023-03-03T04:19:31.324Z,-2.94
2023-03-03T04:24:33.682Z,-1.77
2023-03-03T04:29:36.356Z,-1.62
2023-03-03T04:34:38.697Z,-4.30
2023-03-03T04:39:41.585Z,-2.78
2023-03-03T04:44:43.985Z,-2.49
2023-03-03T04:49:47.109Z,-1.58
2023-03-03T04:55:17.008Z,-2.18
2023-03-03T05:00:22.106Z,-1.81
2023-03-03T05:05:24.522Z,-2.22
2023-03-03T05:10:26.833Z,-4.66
2023-03-03T05:15:29.057Z,-2.10
2023-03-03T05:20:31.199Z,-1.92
2023-03-03T05:25:33.406Z,-3.22
2023-03-03T05:30:36.458Z,-1.54
2023-03-03T05:35:38.733Z,-1.69
2023-03-03T05:40:40.967Z,-4.56
2023-03-03T05:45:43.280Z,-2.41
2023-03-03T05:50:45.427Z,-2.35
2023-03-03T05:55:47.806Z,-1.51
2023-03-03T06:00:50.059Z,-2.22
2023-03-03T06:05:54.536Z,-2.00
2023-03-03T06:10:56.766Z,-2.40
2023-03-03T06:15:59.350Z,-2.15
2023-03-03T06:21:01.532Z,-1.73
2023-03-03T06:26:03.875Z,-1.35
2023-03-03T06:31:06.130Z,-1.66
2023-03-03T06:36:08.556Z,-1.65
2023-03-03T06:41:10.989Z,-1.92
2023-03-03T06:46:13.272Z,-5.08
2023-03-03T06:51:35.449Z,-2.24
2023-03-03T06:56:38.149Z,-2.21
2023-03-03T07:01:41.181Z,-1.28
2023-03-03T07:06:43.446Z,-2.29
2023-03-03T07:11:46.716Z,-2.07
2023-03-03T07:16:55.169Z,-1.48
2023-03-03T07:21:58.510Z,-2.56
2023-03-03T07:27:01.404Z,-1.18
2023-03-03T07:32:12.345Z,-1.76
2023-03-03T07:37:18.909Z,-1.16
2023-03-03T07:42:22.867Z,-1.73
2023-03-03T07:47:37.810Z,-1.19
2023-03-03T07:52:52.017Z,-1.11
2023-03-03T07:57:59.113Z,-1.43
2023-03-03T08:03:05.326Z,-1.09
2023-03-03T08:08:10.662Z,-1.04
2023-03-03T08:13:21.943Z,-1.49
2023-03-03T08:18:36.449Z,-1.59
2023-03-03T08:23:38.631Z,-1.23
2023-03-03T08:28:41.226Z,-1.53
2023-03-03T08:33:43.755Z,-1.42
2023-03-03T08:38:46.033Z,-0.70
2023-03-03T08:43:48.601Z,-0.64
2023-03-03T08:48:51.681Z,-4.22
2023-03-03T08:53:54.016Z,-0.88
2023-03-03T08:59:02.457Z,-1.67
2023-03-03T09:04:05.427Z,-0.68
2023-03-03T09:09:07.876Z,-0.39
2023-03-03T09:14:15.764Z,-0.67
2023-03-03T09:19:30.947Z,-0.87
2023-03-03T09:24:37.465Z,-0.40
2023-03-03T09:29:43.463Z,-0.53
2023-03-03T09:34:46.906Z,-0.64
2023-03-03T09:39:51.648Z,-0.81
2023-03-03T09:45:22.019Z,-3.43
2023-03-03T09:50:26.049Z,-0.18
2023-03-03T09:55:51.661Z,-0.67
2023-03-03T10:01:27.638Z,-0.19
2023-03-03T10:06:54.270Z,-1.00
2023-03-03T10:12:08.825Z,-0.10
2023-03-03T10:17:31.292Z,-0.29
2023-03-03T10:23:03.122Z,-0.02
2023-03-03T10:28:32.404Z,-0.15
2023-03-03T10:34:25.366Z,0.00
2023-03-03T10:39:46.164Z,-0.03
2023-03-03T10:44:54.514Z,-0.01
2023-03-03T10:50:07.981Z,-0.04
2023-03-03T10:55:36.409Z,0.15
2023-03-03T11:01:24.756Z,0.22
2023-03-03T11:06:31.306Z,-0.40
2023-03-03T11:11:47.037Z,-0.39
2023-03-03T11:17:05.314Z,0.29
2023-03-03T11:22:29.677Z,-0.37
2023-03-03T11:27:57.613Z,0.19
2023-03-03T11:33:22.733Z,0.28
2023-03-03T11:38:48.885Z,0.11
2023-03-03T11:44:05.611Z,-0.55
2023-03-03T11:49:35.540Z,-1.44
2023-03-03T11:54:55.210Z,0.30
2023-03-03T12:00:15.546Z,0.30
2023-03-03T12:05:55.477Z,0.35
2023-03-03T12:11:31.610Z,0.37
2023-03-03T12:16:59.180Z,0.27
2023-03-03T12:22:23.439Z,-0.41
2023-03-03T12:27:35.224Z,0.22
2023-03-03T12:32:46.395Z,0.19
2023-03-03T12:37:55.495Z,-0.47
2023-03-03T12:43:08.435Z,-0.11
2023-03-03T12:48:18.072Z,0.18
2023-03-03T12:53:29.459Z,0.33
2023-03-03T12:58:51.044Z,0.11
2023-03-03T13:04:17.163Z,0.24
2023-03-03T13:09:33.929Z,0.23
2023-03-03T13:14:51.246Z,-0.87
2023-03-03T13:19:58.356Z,-0.21
2023-03-03T13:25:09.729Z,0.11
2023-03-03T13:30:18.142Z,0.34
2023-03-03T13:35:46.207Z,-0.32
2023-03-03T13:40:58.304Z,-0.07
2023-03-03T13:46:07.270Z,0.37
2023-03-03T13:51:23.070Z,0.03
2023-03-03T13:56:28.841Z,0.40
2023-03-03T14:01:40.153Z,0.40
2023-03-03T14:06:48.932Z,0.24
2023-03-03T14:11:56.463Z,0.34
2023-03-03T14:17:07.662Z,-0.02
2023-03-03T14:22:37.229Z,0.30
2023-03-03T14:27:48.633Z,0.26
2023-03-03T14:33:09.619Z,0.23
2023-03-03T14:38:32.056Z,-0.04
2023-03-03T14:43:37.196Z,-0.76
2023-03-03T14:48:51.702Z,0.14
2023-03-03T14:53:54.198Z,-0.54
2023-03-03T14:59:24.955Z,0.02
2023-03-03T15:04:28.474Z,0.02
2023-03-03T15:09:51.383Z,0.02
2023-03-03T15:15:06.207Z,-1.03
2023-03-03T15:20:33.663Z,-0.01
2023-03-03T15:26:00.210Z,-0.05
2023-03-03T15:31:27.277Z,-0.07
2023-03-03T15:36:51.205Z,-0.09
2023-03-03T15:42:06.849Z,-0.14
2023-03-03T15:47:28.956Z,-0.14
2023-03-03T15:53:06.095Z,-0.17
2023-03-03T15:58:20.468Z,-0.19
2023-03-03T16:03:37.386Z,-0.39
2023-03-03T16:08:47.767Z,-0.23
2023-03-03T16:13:59.587Z,-0.23
2023-03-03T16:19:04.414Z,-0.27
2023-03-03T16:24:41.988Z,-0.54
2023-03-03T16:30:05.465Z,-0.30
2023-03-03T16:35:26.435Z,-0.28
2023-03-03T16:40:54.759Z,-0.28
2023-03-03T16:46:12.105Z,-1.28
2023-03-03T16:51:40.150Z,-0.39
2023-03-03T16:56:43.973Z,-0.39
2023-03-03T17:02:23.872Z,-0.35
2023-03-03T17:07:50.771Z,-0.40
2023-03-03T17:13:16.100Z,-0.37
2023-03-03T17:18:45.362Z,-0.39
2023-03-03T17:24:12.753Z,-0.42
2023-03-03T17:29:50.483Z,-1.38
2023-03-03T17:35:16.216Z,-0.48
2023-03-03T17:40:25.733Z,-1.77
2023-03-03T17:45:29.933Z,-1.69
2023-03-03T17:50:47.395Z,-0.47
2023-03-03T17:56:15.464Z,-0.68
2023-03-03T18:01:38.504Z,-0.56
2023-03-03T18:06:59.889Z,-0.56
2023-03-03T18:12:39.812Z,-0.57
2023-03-03T18:18:17.832Z,-0.56
2023-03-03T18:23:44.045Z,-0.61
2023-03-03T18:28:49.552Z,-0.93
2023-03-03T18:34:08.874Z,-1.60
2023-03-03T18:39:14.649Z,-1.09
2023-03-03T18:44:48.094Z,-0.76
2023-03-03T18:49:52.901Z,-0.91
2023-03-03T18:55:03.082Z,-1.56
2023-03-03T19:00:25.365Z,-1.01
2023-03-03T19:05:48.245Z,-1.35
2023-03-03T19:10:54.904Z,-1.41
2023-03-03T19:16:02.231Z,-1.32
2023-03-03T19:21:31.819Z,-4.69
2023-03-03T19:26:54.262Z,-2.20
2023-03-03T19:32:17.816Z,-1.56
2023-03-03T19:37:41.634Z,-1.40
2023-03-03T19:42:56.751Z,-1.65
2023-03-03T19:48:28.228Z,-1.50
2023-03-03T19:54:10.520Z,-1.59
2023-03-03T19:59:31.884Z,-1.64
2023-03-03T20:04:38.533Z,-2.04
2023-03-03T20:10:01.432Z,-1.67
2023-03-03T20:15:19.181Z,-1.77
2023-03-03T20:20:39.386Z,-1.74
2023-03-03T20:25:56.978Z,-1.85
2023-03-03T20:31:22.449Z,-5.26
2023-03-03T20:36:48.328Z,-2.56
2023-03-03T20:41:58.968Z,-2.85
2023-03-03T20:47:04.232Z,-1.92
2023-03-03T20:52:15.142Z,-3.35
2023-03-03T20:57:25.292Z,-1.91
2023-03-03T21:02:52.899Z,-1.89
2023-03-03T21:07:57.924Z,-2.09
2023-03-03T21:13:25.772Z,-2.06
2023-03-03T21:18:28.183Z,-1.92
2023-03-03T21:23:36.653Z,-2.06
2023-03-03T21:28:38.936Z,-2.45
2023-03-03T21:33:49.256Z,-1.91
2023-03-03T21:38:53.871Z,-2.39
2023-03-03T21:43:56.082Z,-2.29
2023-03-03T21:48:58.250Z,-2.15
2023-03-03T21:54:00.475Z,-4.31
2023-03-03T21:59:02.670Z,-3.32
2023-03-03T22:04:05.051Z,-3.24
2023-03-03T22:09:07.927Z,-2.03
2023-03-03T22:14:10.413Z,-5.19
2023-03-03T22:19:12.696Z,-7.06
2023-03-03T22:24:14.966Z,-2.05
2023-03-03T22:29:23.210Z,-5.42
2023-03-03T22:34:25.486Z,-4.71
2023-03-03T22:39:27.742Z,-5.66
2023-03-03T22:44:29.965Z,-5.44
2023-03-03T22:49:32.165Z,-3.17
2023-03-03T22:54:34.303Z,-5.55
2023-03-03T22:59:36.547Z,-3.17
2023-03-03T23:04:38.802Z,-7.40
2023-03-03T23:09:41.029Z,-5.47
2023-03-03T23:14:43.280Z,-3.52
2023-03-03T23:19:49.288Z,-3.73
2023-03-03T23:24:54.554Z,-5.65
2023-03-03T23:30:04.297Z,-2.97
2023-03-03T23:35:07.556Z,-2.29
2023-03-03T23:40:10.537Z,-3.06
2023-03-03T23:45:13.710Z,-2.36
2023-03-03T23:50:16.000Z,-3.05
2023-03-03T23:55:18.231Z,-3.23
